Date,TemperatureHighF,TemperatureAvgF,TemperatureLowF,DewpointHighF,DewpointAvgF,DewpointLowF,HumidityHigh,HumidityAvg,HumidityLow,PressureMaxIn,PressureMinIn,WindSpeedMaxMPH,WindSpeedAvgMPH,GustSpeedMaxMPH,PrecipitationSumIn
2012-1-1,41,37,34,38,35,33,97,94,86,30.00,29.53,19,3,19,0.18
2012-1-2,40,29,19,38,23,10,96,78,62,29.64,29.49,28,4,28,0.06
2012-1-3,19,8,-2,10,2,-7,88,76,65,29.97,29.63,18,4,18,0.00
2012-1-4,14,5,-3,10,-1,-7,86,76,64,30.03,29.79,13,2,13,0.00
2012-1-5,23,17,6,21,14,4,92,88,78,29.83,29.68,15,1,15,0.00
2012-1-6,39,25,8,31,22,6,96,88,73,29.81,29.66,10,1,10,0.01
2012-1-7,42,35,27,37,30,26,96,83,69,29.85,29.64,19,2,19,0.01
2012-1-8,36,26,11,28,20,9,91,78,68,30.20,29.85,19,3,19,0.00
2012-1-9,32,20,9,22,15,7,93,81,62,30.21,29.85,11,1,11,0.00
2012-1-10,34,30,23,28,23,15,86,76,62,29.91,29.72,15,3,15,0.00
2012-1-11,31,24,12,24,19,10,93,82,71,30.04,29.90,23,2,23,0.00
2012-1-12,29,27,26,27,25,22,94,90,85,29.95,29.49,36,9,36,0.00
2012-1-13,32,26,18,31,24,16,96,92,81,29.49,29.11,26,5,26,0.00
2012-1-14,23,12,-2,20,7,-6,90,83,70,29.95,29.46,20,4,20,0.00
2012-1-15,3,-4,-12,-5,-9,-15,88,80,67,30.39,29.94,19,3,19,0.00
2012-1-16,21,7,-12,17,0,-16,89,74,48,30.42,29.98,12,2,12,0.00
2012-1-17,47,31,20,41,29,17,96,93,82,29.98,29.34,30,2,30,0.26
2012-1-18,46,20,2,41,12,-2,92,70,59,30.07,29.35,39,6,39,0.01
2012-1-19,20,10,-6,17,3,-9,90,75,46,30.12,29.84,22,4,22,0.00
2012-1-20,22,14,2,19,6,-3,91,69,46,30.17,29.82,24,4,24,0.00
2012-1-21,15,7,-4,10,2,-7,90,80,62,30.23,30.03,10,0,10,0.00
2012-1-22,23,11,-4,16,3,-8,87,73,48,30.41,30.23,14,2,14,0.00
2012-1-23,42,30,20,40,28,16,96,90,84,30.34,29.79,24,6,24,0.36
2012-1-24,43,37,28,41,33,25,97,87,79,29.99,29.77,16,2,16,0.00
2012-1-25,28,27,25,26,22,21,91,84,78,30.16,29.99,17,4,17,0.00
2012-1-26,35,27,20,26,22,17,93,82,50,30.15,29.85,19,3,19,0.00
2012-1-27,38,32,27,37,31,25,97,93,87,29.85,29.29,26,5,26,0.33
2012-1-28,36,32,29,29,26,21,92,79,69,29.92,29.65,20,4,20,0.00
2012-1-29,32,27,23,22,18,13,84,67,55,29.96,29.79,28,3,28,0.00
2012-1-30,30,21,12,25,15,9,93,76,58,30.16,29.85,24,4,24,0.00
2012-1-31,41,28,14,31,23,11,94,84,63,30.15,29.90,8,1,8,0.05
2012-2-1,48,40,33,41,35,28,93,82,61,29.92,29.75,19,3,19,0.10
2012-2-2,35,25,14,28,21,10,90,85,76,30.19,29.91,15,4,15,0.00
2012-2-3,28,20,10,23,14,8,92,77,56,30.32,30.16,14,2,14,0.00
2012-2-4,28,21,6,24,16,4,92,80,55,30.17,30.06,17,3,17,0.00
2012-2-5,24,14,2,16,8,-1,90,77,57,30.09,29.97,14,1,14,0.00
2012-2-6,42,32,22,27,22,16,85,67,48,29.97,29.80,17,3,17,0.00
2012-2-7,34,25,8,26,19,6,91,79,67,30.17,29.84,10,2,13,0.00
2012-2-8,31,18,2,16,7,-1,90,65,29,30.19,29.98,8,1,10,0.00
2012-2-9,37,27,14,20,16,10,87,66,48,30.03,29.94,15,2,15,0.00
2012-2-10,38,27,15,21,18,12,90,68,44,30.03,29.82,12,1,12,0.00
2012-2-11,29,20,3,22,14,0,88,79,65,29.83,29.61,13,2,13,0.00
2012-2-12,10,5,1,1,-3,-6,85,71,56,29.75,29.60,18,5,18,0.00
2012-2-13,34,21,6,20,13,-1,90,72,45,29.89,29.68,24,4,24,0.00
2012-2-14,34,26,16,25,18,13,90,73,46,30.01,29.89,10,1,10,0.00
2012-2-15,37,32,27,30,27,24,90,82,62,30.20,30.01,8,1,8,0.00
2012-2-16,38,32,28,31,27,24,94,82,65,30.21,29.91,12,2,12,0.00
2012-2-17,38,33,28,33,26,19,96,77,55,29.91,29.84,19,3,19,0.08
2012-2-18,36,29,25,26,22,19,92,76,59,29.94,29.79,15,3,15,0.00
2012-2-19,31,23,14,22,16,11,92,78,59,30.03,29.94,12,2,12,0.00
2012-2-20,29,20,10,14,12,8,92,71,49,30.23,29.96,20,3,20,0.00
2012-2-21,37,25,9,28,16,7,92,73,42,30.26,29.75,18,3,18,0.00
2012-2-22,44,37,30,33,29,23,95,77,45,29.75,29.44,23,2,23,0.06
2012-2-23,42,33,24,35,28,20,96,83,63,29.75,29.36,19,3,19,0.08
2012-2-24,32,28,23,31,25,20,96,87,74,29.74,29.21,26,4,26,0.00
2012-2-25,33,26,16,31,21,11,95,82,70,29.81,29.17,30,6,30,0.00
2012-2-26,28,18,8,11,4,-1,78,57,28,30.32,29.81,19,4,19,0.00
2012-2-27,40,25,7,27,16,3,90,69,51,30.33,29.97,24,3,24,0.01
2012-2-28,33,26,15,25,18,11,91,73,55,30.30,30.00,27,4,27,0.00
2012-2-29,26,22,15,22,19,12,90,85,73,30.29,29.84,21,4,21,0.00
2012-3-1,25,23,19,22,19,15,91,86,82,29.93,29.72,30,6,30,0.00
2012-3-2,33,24,19,26,20,15,94,88,75,30.01,29.80,20,5,20,0.00
2012-3-3,47,34,25,39,26,17,94,74,33,29.80,29.32,29,7,29,0.06
2012-3-4,37,28,19,25,20,14,93,70,50,29.59,29.50,17,3,17,0.00
2012-3-5,26,14,3,14,8,0,90,77,49,30.23,29.58,17,3,17,0.00
2012-3-6,31,14,-5,14,2,-9,88,63,27,30.44,30.23,11,1,11,0.00
2012-3-7,58,38,17,30,21,10,86,56,25,30.40,30.15,14,2,14,0.01
2012-3-8,64,51,34,49,40,28,94,69,42,30.16,29.65,23,4,23,0.45
2012-3-9,35,28,23,32,23,18,95,83,53,30.07,29.77,19,3,19,0.09
2012-3-10,30,22,17,21,18,14,93,83,56,30.39,30.06,15,2,15,0.00
2012-3-11,51,32,15,30,22,12,93,70,41,30.36,30.21,14,2,14,0.10
2012-3-12,61,42,28,37,31,26,95,70,34,30.24,30.07,11,2,11,0.00
2012-3-13,62,50,36,52,41,33,91,73,57,30.08,29.88,16,2,16,0.00
2012-3-14,49,39,30,37,33,28,96,79,57,30.20,29.97,15,2,15,0.00
2012-3-15,48,38,28,39,34,26,96,86,68,30.28,30.20,15,3,15,0.01
2012-3-16,42,38,33,42,37,32,97,96,93,30.23,30.05,16,2,16,0.06
2012-3-17,58,43,33,44,38,32,97,86,53,30.32,30.18,8,1,8,0.01
2012-3-18,73,52,33,51,42,32,96,74,35,30.28,30.14,14,2,14,0.00
2012-3-19,73,56,42,56,47,39,94,74,44,30.25,30.14,10,1,10,0.00
2012-3-20,75,58,44,54,48,41,94,72,41,30.31,30.23,12,2,12,0.00
2012-3-21,77,58,44,54,48,43,96,72,37,30.35,30.23,13,2,13,0.00
2012-3-22,75,59,44,56,50,42,96,75,43,30.26,30.08,14,2,14,0.00
2012-3-23,63,53,36,51,40,26,96,66,27,30.18,30.07,18,2,18,0.00
2012-3-24,52,44,34,35,24,10,82,51,19,30.13,29.99,10,1,10,0.00
2012-3-25,45,40,37,42,38,33,96,91,75,30.00,29.72,12,1,12,0.23
2012-3-26,44,30,21,42,20,2,95,67,43,30.02,29.63,28,7,28,0.00
2012-3-27,34,24,15,13,2,-14,58,41,12,30.19,30.02,22,5,22,0.00
2012-3-28,42,34,26,39,24,8,96,67,36,30.09,29.55,16,2,16,0.02
2012-3-29,41,33,29,38,30,25,95,88,77,29.91,29.56,22,4,22,0.07
2012-3-30,39,31,24,26,16,9,89,57,30,30.02,29.90,17,4,17,0.00
2012-3-31,41,32,25,30,22,11,92,68,42,29.99,29.85,10,1,10,0.00
2012-4-1,41,32,22,34,28,20,96,86,58,29.87,29.63,9,0,9,0.09
2012-4-2,43,35,30,31,23,9,96,66,29,29.82,29.62,24,4,24,0.05
2012-4-3,48,35,24,25,13,8,63,42,24,29.86,29.73,27,4,27,0.00
2012-4-4,50,37,24,32,25,17,93,63,33,29.74,29.52,20,3,20,0.02
2012-4-5,38,31,28,29,24,20,92,76,57,29.87,29.67,18,4,18,0.00
2012-4-6,42,32,24,22,19,14,88,61,33,29.99,29.86,20,3,20,0.00
2012-4-7,46,34,22,24,20,16,81,57,37,30.01,29.95,23,3,23,0.00
2012-4-8,49,38,31,28,25,21,73,59,41,29.97,29.57,15,3,15,0.00
2012-4-9,42,36,32,34,32,27,94,85,55,29.58,29.48,17,2,17,0.45
2012-4-10,44,38,33,37,32,28,92,77,62,29.74,29.55,18,3,18,0.07
2012-4-11,46,38,30,35,31,28,92,75,56,29.90,29.73,15,2,15,0.01
2012-4-12,48,38,29,36,31,26,96,76,45,30.09,29.90,16,2,16,0.02
2012-4-13,58,42,26,35,26,19,95,58,26,30.14,30.03,18,2,18,0.00
2012-4-14,62,46,28,35,26,21,88,52,23,30.14,29.98,18,2,18,0.00
2012-4-15,66,55,41,55,47,34,91,75,59,30.01,29.94,17,2,17,0.00
2012-4-16,84,69,54,60,52,40,96,63,21,30.00,29.87,20,2,20,0.01
2012-4-17,70,59,42,55,38,24,76,48,27,30.19,29.89,20,4,20,0.00
2012-4-18,51,39,27,32,28,24,89,66,44,30.25,30.08,11,2,11,0.00
2012-4-19,66,47,27,40,32,26,94,62,26,30.09,29.95,13,2,13,0.00
2012-4-20,76,59,40,49,43,37,90,58,27,29.98,29.83,20,3,20,0.00
2012-4-21,69,53,36,54,46,35,96,81,56,29.84,29.70,14,2,14,1.32
2012-4-22,37,34,31,36,33,30,97,96,94,29.86,29.68,16,2,16,0.69
2012-4-23,56,46,36,53,43,34,95,90,81,29.68,29.27,32,7,32,0.52
2012-4-24,46,40,32,40,33,27,93,79,49,29.64,29.30,24,4,24,0.13
2012-4-25,47,38,28,36,30,27,96,77,48,29.87,29.64,20,2,20,0.01
2012-4-26,58,43,26,44,33,24,95,70,33,29.89,29.56,16,2,16,0.19
2012-4-27,46,35,28,44,30,21,95,84,69,30.00,29.56,22,5,22,0.28
2012-4-28,46,34,25,24,18,9,80,57,23,30.09,29.99,23,5,23,0.00
2012-4-29,46,36,25,22,16,9,82,47,23,30.20,30.03,25,4,25,0.00
2012-4-30,57,44,26,35,21,10,70,42,20,30.30,30.11,12,2,12,0.00
2012-5-1,49,41,39,41,38,29,96,90,46,30.13,30.03,16,5,16,0.42
2012-5-2,49,44,39,45,42,38,96,92,85,30.17,30.10,16,5,16,0.00
2012-5-3,53,47,42,49,45,41,96,94,85,30.15,30.04,18,4,18,0.17
2012-5-4,69,56,47,61,54,46,97,93,77,30.08,29.90,11,1,11,0.26
2012-5-5,58,48,37,52,45,36,97,89,66,30.11,29.93,11,2,11,0.01
2012-5-6,61,49,34,46,37,28,96,66,32,30.12,30.06,13,2,13,0.00
2012-5-7,69,54,30,48,33,27,91,50,23,30.13,30.01,14,2,14,0.00
2012-5-8,58,50,44,52,47,42,97,92,70,30.03,29.82,15,3,15,1.66
2012-5-9,62,56,51,59,54,50,97,93,83,29.83,29.63,8,1,8,0.07
2012-5-10,54,47,40,50,45,38,97,91,76,29.70,29.48,14,2,14,0.34
2012-5-11,59,46,35,41,36,29,96,72,34,30.05,29.70,20,3,20,0.08
2012-5-12,74,54,31,45,37,30,96,59,30,30.16,30.05,17,2,17,0.00
2012-5-13,75,61,47,56,49,43,96,68,40,30.17,30.09,18,2,18,0.00
2012-5-14,64,56,47,58,53,46,97,92,80,30.17,30.11,11,1,11,0.59
2012-5-15,58,56,55,56,55,54,97,95,91,30.13,29.98,14,2,14,0.71
2012-5-16,75,60,54,63,56,45,98,88,40,29.99,29.80,20,2,20,0.11
2012-5-17,60,49,37,50,38,34,94,69,39,30.17,29.93,18,3,18,0.00
2012-5-18,69,52,33,47,38,32,96,64,29,30.25,30.16,11,1,11,0.00
2012-5-19,78,61,41,53,46,39,95,64,33,30.22,30.14,12,1,12,0.00
2012-5-20,81,68,49,58,51,48,96,60,35,30.29,30.20,16,3,16,0.00
2012-5-21,73,64,54,60,52,38,95,66,40,30.28,30.06,20,5,20,0.02
2012-5-22,68,62,59,61,59,57,96,89,75,30.06,29.88,13,3,13,0.00
2012-5-23,72,62,54,62,58,53,97,90,69,30.08,29.89,9,1,9,0.01
2012-5-24,71,63,52,63,59,51,97,88,72,30.22,30.08,18,4,18,0.07
2012-5-25,71,64,60,65,61,58,96,90,78,30.23,30.09,14,3,14,0.18
2012-5-26,78,68,53,65,57,45,97,72,34,30.17,30.09,14,2,14,0.00
2012-5-27,76,64,47,59,53,46,97,70,45,30.22,30.04,13,1,13,0.00
2012-5-28,82,68,52,65,57,47,93,68,47,30.05,29.89,10,1,10,0.04
2012-5-29,82,72,62,71,67,61,96,86,69,29.90,29.69,20,3,20,1.17
2012-5-30,74,63,55,62,59,54,97,86,54,29.79,29.74,5,1,0,0.13
2012-5-31,70,61,46,55,49,43,97,66,45,30.01,29.78,16,2,16,0.01
2012-6-1,65,56,41,50,45,40,95,69,52,30.08,29.96,21,5,21,0.00
2012-6-2,55,50,44,51,46,37,97,87,53,29.96,29.76,34,7,34,0.69
2012-6-3,67,55,48,55,50,45,97,85,55,29.77,29.67,17,2,17,0.38
2012-6-4,51,48,46,48,45,43,94,89,82,29.86,29.68,21,3,21,0.25
2012-6-5,60,50,42,50,46,41,97,85,64,29.95,29.84,14,1,14,0.01
2012-6-6,63,52,42,55,48,42,97,87,64,30.00,29.95,13,1,13,0.12
2012-6-7,67,55,44,55,49,44,97,82,50,30.00,29.93,13,1,13,0.01
2012-6-8,73,58,44,59,51,43,97,80,56,29.96,29.78,17,1,17,0.17
2012-6-9,71,58,42,58,51,41,97,80,51,30.02,29.86,13,1,13,0.01
2012-6-10,79,64,48,61,54,47,97,73,43,30.20,30.01,9,1,9,0.00
2012-6-11,74,65,55,61,57,53,97,76,57,30.25,30.17,19,3,19,0.00
2012-6-12,73,61,51,63,57,50,97,86,65,30.18,29.94,14,2,14,0.59
2012-6-13,70,62,49,61,57,48,97,85,62,30.15,29.89,10,2,16,0.29
2012-6-14,73,61,46,53,48,41,96,64,33,30.30,30.15,14,2,14,0.00
2012-6-15,76,62,46,54,47,42,93,60,33,30.36,30.28,12,2,12,0.00
2012-6-16,77,63,46,59,52,45,96,70,45,30.36,30.23,13,2,13,0.00
2012-6-17,73,62,51,60,54,46,95,75,56,30.26,30.07,16,4,16,0.00
2012-6-18,68,59,52,57,53,50,95,81,64,30.13,30.08,15,3,15,0.00
2012-6-19,76,63,49,67,59,48,97,87,71,30.14,30.04,9,1,9,0.00
2012-6-20,87,76,62,76,69,61,97,82,61,30.09,29.98,14,2,14,0.00
2012-6-21,88,75,63,73,67,61,97,77,53,29.99,29.83,13,1,13,0.00
2012-6-22,83,71,57,68,62,54,96,76,52,29.88,29.81,15,2,15,0.00
2012-6-23,75,62,53,64,58,52,97,85,65,30.01,29.87,15,2,15,0.00
2012-6-24,77,63,48,59,52,46,97,72,36,30.02,29.91,15,1,15,0.00
2012-6-25,70,59,53,61,56,51,97,89,61,29.91,29.69,12,1,12,0.45
2012-6-26,57,52,48,55,51,47,97,96,93,29.73,29.66,15,2,15,0.36
2012-6-27,64,56,52,58,54,51,97,93,78,29.81,29.62,15,2,15,0.20
2012-6-28,80,64,50,62,56,50,98,78,46,29.82,29.74,9,1,9,0.01
2012-6-29,83,69,55,71,60,49,97,76,35,29.77,29.63,21,2,21,0.09
2012-6-30,82,69,53,63,58,51,96,71,46,29.81,29.71,16,2,16,0.00
2012-7-1,82,68,56,65,60,55,97,79,46,29.92,29.79,12,1,12,0.19
2012-7-2,77,66,57,63,59,56,98,80,55,29.97,29.91,15,2,15,0.01
2012-7-3,78,64,50,63,55,49,97,75,44,30.00,29.86,15,1,15,0.00
2012-7-4,82,70,59,72,65,57,97,85,62,29.87,29.75,13,1,13,0.25
2012-7-5,74,65,55,64,60,54,98,85,66,29.95,29.78,13,2,13,0.00
2012-7-6,82,67,51,68,60,50,97,80,53,29.98,29.89,10,1,10,0.00
2012-7-7,76,68,59,68,65,58,97,91,76,29.91,29.83,8,0,8,0.02
2012-7-8,75,65,52,64,57,50,98,78,47,29.95,29.86,16,2,16,0.01
2012-7-9,72,60,46,58,49,44,97,71,44,30.05,29.94,17,2,17,0.00
2012-7-10,75,61,44,57,50,43,96,71,42,30.14,30.04,13,1,13,0.00
2012-7-11,83,66,50,63,52,46,97,67,33,30.22,30.14,9,1,9,0.00
2012-7-12,85,70,52,64,57,49,96,68,35,30.23,30.14,13,1,13,0.00
2012-7-13,86,71,56,69,59,54,96,71,39,30.24,30.16,13,1,13,0.00
2012-7-14,86,71,61,70,63,56,96,78,36,30.23,30.13,8,1,8,0.00
2012-7-15,82,70,59,70,65,58,97,85,61,30.17,29.93,8,1,8,0.69
2012-7-16,79,70,63,71,67,62,97,90,69,29.94,29.84,12,1,12,0.01
2012-7-17,88,72,62,71,66,61,98,85,54,29.88,29.70,20,1,20,0.54
2012-7-18,78,70,58,68,64,52,97,81,59,30.00,29.78,11,2,11,0.02
2012-7-19,72,62,48,57,52,46,97,73,52,30.08,29.98,13,2,13,0.00
2012-7-20,75,64,54,59,52,48,95,67,49,30.12,30.05,14,2,14,0.00
2012-7-21,79,64,50,62,54,49,97,73,40,30.14,30.07,10,1,10,0.00
2012-7-22,82,68,54,64,58,52,95,74,46,30.16,30.08,14,1,14,0.00
2012-7-23,83,71,59,71,65,58,97,82,59,30.10,29.78,13,1,13,0.24
2012-7-24,77,67,53,70,62,51,97,87,59,29.82,29.67,21,2,21,0.89
2012-7-25,73,62,52,61,54,50,96,77,48,29.94,29.82,18,2,18,0.00
2012-7-26,68,63,57,66,61,55,97,94,83,29.84,29.65,8,0,8,0.63
2012-7-27,72,65,61,67,64,60,98,95,83,29.97,29.68,7,0,7,0.13
2012-7-28,75,65,56,68,62,56,98,92,72,30.03,29.96,13,1,13,0.15
2012-7-29,73,65,59,66,62,58,97,90,74,30.10,30.00,9,1,9,0.43
2012-7-30,81,67,56,70,62,55,98,85,50,30.13,30.08,10,1,10,0.03
2012-7-31,79,68,57,66,59,54,98,76,45,30.11,29.96,20,2,20,0.01
2012-8-1,80,67,56,68,62,55,98,86,63,29.97,29.86,13,1,13,0.50
2012-8-2,82,70,59,69,64,58,98,84,53,29.95,29.88,14,1,14,0.01
2012-8-3,84,70,59,72,65,58,97,84,60,30.15,29.94,12,1,12,0.00
2012-8-4,86,70,60,74,66,59,98,86,58,30.26,30.15,12,2,12,0.26
2012-8-5,83,72,61,74,68,60,98,88,65,30.22,29.91,49,2,49,0.58
2012-8-6,72,64,53,66,59,52,98,84,61,30.04,29.96,11,1,11,0.00
2012-8-7,78,63,50,62,55,49,98,78,43,30.05,29.98,11,1,11,0.01
2012-8-8,84,68,53,66,57,52,98,74,38,30.04,29.98,9,1,9,0.00
2012-8-9,84,68,58,70,64,57,98,87,57,30.01,29.89,16,1,16,0.54
2012-8-10,74,67,63,70,65,63,98,93,80,29.94,29.86,14,2,14,0.07
2012-8-11,72,66,58,69,64,58,98,93,84,29.94,29.87,16,3,16,0.04
2012-8-12,79,68,59,68,63,58,98,85,58,29.96,29.90,12,1,12,0.00
2012-8-13,76,64,56,65,60,56,98,88,64,30.00,29.94,11,1,11,0.00
2012-8-14,75,65,55,65,60,55,98,85,53,30.00,29.93,7,0,7,0.01
2012-8-15,78,67,60,66,62,59,97,85,63,29.94,29.87,10,1,10,0.00
2012-8-16,75,64,56,63,59,55,98,85,58,29.94,29.88,15,2,15,0.00
2012-8-17,79,65,54,67,60,53,98,86,61,29.90,29.80,15,1,15,0.56
2012-8-18,70,61,48,60,54,47,98,79,47,29.96,29.87,12,1,12,0.00
2012-8-19,72,57,43,57,49,43,98,78,41,30.02,29.93,8,1,8,0.01
2012-8-20,77,61,47,60,52,46,98,74,38,29.96,29.87,9,1,9,0.00
2012-8-21,74,62,52,58,54,50,97,78,46,30.12,29.93,11,1,11,0.00
2012-8-22,76,61,47,59,52,46,97,76,43,30.17,30.11,10,1,10,0.00
2012-8-23,79,65,52,62,57,52,97,78,48,30.17,30.12,12,1,12,0.00
2012-8-24,81,64,53,64,58,52,98,82,51,30.24,30.16,8,0,8,0.01
2012-8-25,81,65,56,68,61,55,98,89,54,30.32,30.23,17,1,17,1.78
2012-8-26,82,72,58,67,62,57,98,74,51,30.34,30.22,9,1,9,0.02
2012-8-27,79,65,53,68,61,52,98,87,57,30.22,29.93,10,1,10,0.19
2012-8-28,73,65,51,68,62,49,98,91,74,29.95,29.82,12,1,12,0.22
2012-8-29,68,54,42,54,48,41,98,81,52,30.02,29.95,13,1,13,0.01
2012-8-30,73,60,44,60,52,43,98,78,58,30.06,29.99,15,2,15,0.01
2012-8-31,79,69,54,66,58,51,96,70,52,30.01,29.84,17,2,17,0.02
2012-9-1,75,64,55,66,59,54,98,85,52,30.11,29.92,11,1,11,0.00
2012-9-2,74,63,50,60,54,47,97,75,41,30.15,30.08,11,2,11,0.00
2012-9-3,77,63,49,60,54,48,98,77,48,30.20,30.11,12,2,12,0.00
2012-9-4,66,62,55,64,60,54,96,92,78,30.13,29.83,14,3,14,0.81
2012-9-5,71,64,57,68,63,56,98,95,81,29.91,29.70,14,2,14,0.26
2012-9-6,79,64,53,68,60,53,99,88,61,29.93,29.85,10,1,10,0.04
2012-9-7,78,66,56,66,59,54,98,83,45,29.99,29.88,8,0,8,0.00
2012-9-8,77,66,56,69,62,55,98,89,65,29.90,29.56,25,3,25,0.80
2012-9-9,66,56,45,55,51,45,98,85,62,29.91,29.74,13,2,13,0.00
2012-9-10,58,50,42,50,45,41,98,83,58,30.10,29.91,18,2,18,0.00
2012-9-11,64,50,36,49,44,35,97,81,48,30.26,30.09,11,1,11,0.00
2012-9-12,76,58,44,58,50,43,97,79,46,30.34,30.26,6,1,9,0.01
2012-9-13,78,62,49,62,54,48,98,80,47,30.35,30.26,10,1,10,0.01
2012-9-14,79,64,52,65,58,51,98,83,55,30.27,30.06,13,1,13,0.01
2012-9-15,61,55,44,57,49,43,97,81,61,30.09,30.00,17,2,17,0.01
2012-9-16,61,48,40,46,42,37,98,81,48,30.09,30.01,15,2,15,0.00
2012-9-17,74,54,38,58,48,38,98,82,47,30.08,30.01,11,1,11,0.01
2012-9-18,66,58,48,65,56,47,98,95,80,30.03,29.62,25,4,25,2.08
2012-9-19,62,51,37,61,45,36,98,81,45,30.19,29.66,19,2,19,0.05
2012-9-20,62,48,34,46,40,34,97,79,53,30.24,30.11,17,2,17,0.00
2012-9-21,66,55,43,53,49,42,97,82,57,30.13,30.03,16,4,16,0.00
2012-9-22,67,57,48,59,53,46,97,87,72,30.04,29.81,14,3,14,0.52
2012-9-23,58,49,36,54,45,35,97,86,60,30.08,29.83,15,2,15,0.02
2012-9-24,55,42,32,46,38,32,98,85,56,30.11,30.04,11,1,11,0.01
2012-9-25,66,49,34,47,40,34,98,77,37,30.10,30.05,14,1,14,0.01
2012-9-26,60,54,44,57,52,43,97,93,86,30.08,29.99,12,1,12,0.01
2012-9-27,59,50,38,57,45,36,98,82,55,30.23,30.02,16,2,16,0.04
2012-9-28,48,44,36,47,43,35,97,95,82,30.23,30.00,18,3,18,0.53
2012-9-29,54,50,47,52,48,46,98,95,87,30.00,29.89,10,1,10,0.09
2012-9-30,53,49,44,52,48,43,98,97,91,29.91,29.66,12,0,12,0.08
2012-10-1,55,51,47,52,49,46,98,95,90,29.94,29.63,16,2,16,0.51
2012-10-2,61,55,48,57,52,48,98,92,74,30.06,29.93,5,0,5,0.05
2012-10-3,63,59,56,61,58,56,98,97,93,30.15,30.04,11,1,11,0.21
2012-10-4,64,61,57,62,60,56,98,97,94,30.16,30.04,8,0,8,0.11
2012-10-5,72,60,50,58,55,50,98,85,52,30.05,29.91,12,1,12,0.01
2012-10-6,65,54,41,59,52,38,98,92,73,29.92,29.72,11,2,11,0.25
2012-10-7,50,42,33,41,38,32,98,87,63,30.04,29.92,10,1,10,0.20
2012-10-8,50,42,34,42,38,33,97,87,53,30.26,30.03,10,1,10,0.06
2012-10-9,49,43,32,44,41,32,98,92,81,30.26,30.10,17,3,17,0.01
2012-10-10,52,46,42,51,45,38,97,94,86,30.10,29.74,19,4,19,0.24
2012-10-11,48,41,34,39,35,32,93,81,59,30.06,29.81,19,3,19,0.01
2012-10-12,46,37,25,38,30,22,96,77,57,30.31,29.94,20,3,20,0.17
2012-10-13,44,34,21,31,25,19,95,72,45,30.38,30.20,12,1,12,0.00
2012-10-14,55,46,36,54,44,31,98,94,76,30.21,29.87,10,2,10,0.47
2012-10-15,66,57,46,58,53,45,98,87,72,29.86,29.63,19,2,19,0.01
2012-10-16,51,40,29,48,36,28,95,83,69,29.88,29.62,18,3,18,0.04
2012-10-17,57,39,27,40,33,26,97,81,40,29.98,29.87,7,0,7,0.00
2012-10-18,61,50,35,44,40,34,97,72,48,30.06,29.98,20,4,20,0.00
2012-10-19,60,53,48,59,52,44,98,94,86,30.06,29.73,31,7,31,1.32
2012-10-20,67,57,43,59,52,40,97,84,43,29.74,29.63,26,2,26,0.00
2012-10-21,52,45,36,44,41,35,97,87,69,29.89,29.74,19,2,19,0.08
2012-10-22,58,49,40,43,41,37,91,76,55,30.02,29.88,19,3,19,0.00
2012-10-23,52,41,33,45,39,32,97,90,74,30.13,30.02,8,1,8,0.00
2012-10-24,57,45,35,40,34,28,97,69,39,30.20,30.11,8,1,8,0.00
2012-10-25,57,48,36,44,41,34,96,79,57,30.25,30.19,11,1,11,0.00
2012-10-26,65,50,39,55,47,38,98,91,70,30.20,30.11,6,0,6,0.00
2012-10-27,59,53,46,54,51,45,98,93,82,30.14,30.01,12,2,12,0.00
2012-10-28,56,52,47,52,44,34,95,75,55,30.02,29.85,25,4,25,0.00
2012-10-29,57,51,46,56,49,43,97,92,81,29.85,29.25,44,10,44,0.66
2012-10-30,60,55,51,56,52,49,97,90,70,29.56,29.29,41,10,41,0.79
2012-10-31,51,46,39,49,43,36,96,89,78,29.55,29.46,18,3,18,0.05
2012-11-1,41,39,37,39,37,35,95,91,86,29.53,29.49,9,1,9,0.06
2012-11-2,40,38,35,37,34,32,94,87,78,29.65,29.52,15,2,15,0.00
2012-11-3,38,35,34,33,32,30,95,87,80,29.83,29.65,13,3,13,0.00
2012-11-4,35,33,29,32,29,23,95,88,78,29.95,29.83,13,3,13,0.00
2012-11-5,32,28,25,24,20,15,83,71,60,30.07,29.93,16,3,16,0.00
2012-11-6,36,25,16,19,16,14,94,71,44,30.15,30.07,16,1,16,0.00
2012-11-7,30,26,21,21,17,14,79,66,57,30.13,29.87,16,2,16,0.00
2012-11-8,33,29,26,28,24,17,95,81,60,29.87,29.79,16,3,16,0.00
2012-11-9,41,33,22,33,26,20,94,75,51,30.08,29.86,18,3,18,0.01
2012-11-10,44,35,27,33,29,23,95,78,47,30.37,30.07,14,2,14,0.00
2012-11-11,64,47,39,44,36,22,94,67,42,30.39,30.32,13,2,13,0.00
2012-11-12,68,53,38,51,43,35,94,73,38,30.37,30.10,22,3,22,0.00
2012-11-13,60,38,25,53,34,23,96,89,75,30.40,30.05,22,3,22,0.46
2012-11-14,39,29,22,26,22,19,95,77,52,30.50,30.40,13,1,13,0.05
2012-11-15,38,27,19,26,22,17,94,81,60,30.42,30.25,9,0,9,0.01
2012-11-16,35,24,17,29,22,15,95,91,74,30.41,30.25,9,0,9,0.00
2012-11-17,38,27,19,32,23,18,95,88,66,30.61,30.41,9,1,9,0.02
2012-11-18,43,28,18,28,22,16,95,80,49,30.63,30.53,10,1,10,0.01
2012-11-19,47,30,21,33,25,19,95,84,51,30.53,30.22,6,0,6,0.00
2012-11-20,46,32,23,32,25,21,95,79,44,30.22,30.10,10,0,10,0.01
2012-11-21,48,34,25,30,25,20,91,72,34,30.22,30.13,9,1,9,0.00
2012-11-22,54,35,24,32,25,22,94,73,31,30.22,30.06,7,1,7,0.00
2012-11-23,58,43,27,39,30,24,95,67,29,30.06,29.58,16,2,16,0.00
2012-11-24,45,31,24,39,22,16,87,70,55,29.61,29.52,23,4,23,0.00
2012-11-25,29,25,21,21,16,8,87,68,44,29.77,29.60,24,5,24,0.00
2012-11-26,34,28,25,26,22,19,91,79,61,30.15,29.76,22,2,22,0.00
2012-11-27,34,28,23,24,22,21,92,80,64,30.21,30.14,11,1,11,0.00
2012-11-28,32,27,25,25,22,20,91,81,62,30.16,30.04,12,1,12,0.00
2012-11-29,36,29,23,28,21,16,91,73,51,30.16,30.03,23,4,23,0.00
2012-11-30,23,19,12,21,7,-3,90,62,33,30.43,30.16,8,2,12,0.00
2012-12-1,32,23,17,31,19,6,95,86,62,30.48,30.36,18,5,18,0.00
2012-12-2,46,41,32,45,38,30,97,91,77,30.37,29.96,17,3,17,0.32
2012-12-3,46,40,30,45,38,28,97,93,87,30.23,29.96,15,2,15,0.00
2012-12-4,51,43,28,50,41,28,98,95,87,30.23,29.87,15,3,15,0.09
2012-12-5,51,35,22,50,31,16,97,85,73,30.12,29.84,24,5,24,0.35
2012-12-6,30,22,18,20,17,15,92,80,63,30.28,30.12,19,3,19,0.00
2012-12-7,34,30,22,32,23,14,96,76,53,30.15,29.98,9,1,9,0.00
2012-12-8,45,37,32,43,36,30,98,95,92,29.99,29.80,18,2,18,0.12
2012-12-9,42,34,31,40,29,23,93,81,68,30.22,29.93,19,3,19,0.00
2012-12-10,49,40,32,48,39,29,98,95,90,30.05,29.50,26,5,26,1.04
2012-12-11,36,29,24,34,27,20,97,91,84,30.09,29.59,13,3,13,0.03
2012-12-12,33,25,16,25,21,15,95,85,69,30.32,30.09,12,1,12,0.00
2012-12-13,35,25,17,28,21,16,96,87,62,30.37,30.19,8,0,8,0.00
2012-12-14,36,29,19,28,24,17,96,81,59,30.19,30.04,16,2,16,0.00
2012-12-15,32,24,16,27,19,9,92,81,59,30.29,30.13,9,2,9,0.00
2012-12-16,25,23,21,23,18,8,93,82,49,30.27,30.05,23,7,23,0.00
2012-12-17,34,28,23,33,26,21,95,93,90,30.06,29.78,23,6,23,0.00
2012-12-18,39,36,33,38,34,32,97,95,92,29.78,29.42,31,5,31,0.96
2012-12-19,34,31,29,33,30,27,97,96,94,30.07,29.46,13,3,13,0.00
2012-12-20,32,28,23,28,26,22,97,93,87,30.20,29.91,22,3,22,0.00
2012-12-21,43,33,28,43,32,27,98,95,89,29.92,28.93,36,11,42,0.35
2012-12-22,31,23,17,28,21,12,94,89,81,29.65,29.10,22,5,22,0.00
2012-12-23,29,23,16,24,18,11,89,80,67,29.81,29.65,19,3,19,0.00
2012-12-24,27,21,15,24,16,12,93,80,66,30.04,29.80,20,3,20,0.00
2012-12-25,26,16,4,21,14,1,93,91,82,30.30,29.98,10,1,10,0.00
2012-12-26,29,16,1,21,10,-2,91,77,52,30.37,29.88,41,3,41,0.00
2012-12-27,29,23,17,28,21,16,95,93,88,29.89,29.50,38,6,38,0.00
2012-12-28,24,20,16,22,19,14,94,94,92,30.03,29.73,0,0,0,0.00
2012-12-29,25,21,18,24,20,16,95,94,92,30.02,29.53,0,0,0,0.00
2012-12-30,18,13,7,17,10,4,93,89,84,30.06,29.53,0,0,0,0.00
2012-12-31,26,20,9,24,17,6,94,89,84,30.06,29.71,0,0,0,0.00
2013-1-1,26,16,2,25,12,-1,95,81,70,29.91,29.69,23,4,23,0.00